Time;durP1;ratioP1;P1;durP2;ratioP2;P2;SDS_P1;SDS_P2;PMS_P1;PMS_P2;Temp;Humidity;BMP_temperature;BMP_pressure;BME280_temperature;BME280_humidity;BME280_pressure;Samples;Min_cycle;Max_cycle;Signal;HPM_P1;HPM_P2
2021/07/28 00:01:19;;;;;;;10.35;7.57;;;17.00;99.90;;;;;;6121674;23;20466;-81
2021/07/28 00:03:44;;;;;;;11.27;8.00;;;16.90;99.90;;;;;;6122553;23;20018;-80
2021/07/28 00:06:20;;;;;;;14.32;9.05;;;16.90;99.90;;;;;;6134125;23;20028;-81
2021/07/28 00:08:47;;;;;;;12.45;9.02;;;17.00;99.90;;;;;;6132926;23;20041;-78
2021/07/28 00:11:14;;;;;;;11.77;8.75;;;16.90;99.90;;;;;;6132906;23;20085;-79
2021/07/28 00:13:40;;;;;;;15.00;9.00;;;16.90;99.90;;;;;;6126343;23;20024;-80
2021/07/28 00:16:11;;;;;;;13.70;8.82;;;16.90;99.90;;;;;;6132103;23;20022;-80
2021/07/28 00:18:44;;;;;;;13.60;8.98;;;16.90;99.90;;;;;;6134063;23;20022;-81
2021/07/28 00:23:54;;;;;;;12.18;9.63;;;16.90;99.90;;;;;;6133648;23;20032;-80
2021/07/28 00:26:20;;;;;;;10.88;9.35;;;16.80;99.90;;;;;;6134175;23;20443;-79
2021/07/28 00:28:45;;;;;;;13.75;9.57;;;16.80;99.90;;;;;;6124187;23;20407;-80
2021/07/28 00:31:11;;;;;;;11.52;9.38;;;16.80;99.90;;;;;;6122180;23;20021;-79
2021/07/28 00:33:37;;;;;;;13.60;9.70;;;16.80;99.90;;;;;;6132493;23;20021;-80
2021/07/28 00:36:02;;;;;;;13.98;9.52;;;16.80;99.90;;;;;;6122921;23;20018;-79
2021/07/28 00:38:28;;;;;;;14.30;10.00;;;16.80;99.90;;;;;;6133081;23;20434;-78
2021/07/28 00:40:54;;;;;;;19.05;10.30;;;16.80;99.90;;;;;;6097910;23;20014;-80
2021/07/28 00:43:24;;;;;;;12.65;10.07;;;16.80;99.90;;;;;;6120939;23;20014;-78
2021/07/28 00:45:51;;;;;;;13.00;9.98;;;16.80;99.90;;;;;;6132558;23;20096;-78
2021/07/28 00:48:17;;;;;;;16.13;10.88;;;16.80;99.90;;;;;;6122091;23;20014;-78
2021/07/28 00:50:43;;;;;;;16.10;10.70;;;16.70;99.90;;;;;;6121172;23;20312;-80
2021/07/28 00:53:19;;;;;;;14.63;10.13;;;16.70;99.90;;;;;;6123197;23;20021;-81
2021/07/28 00:55:49;;;;;;;12.50;10.30;;;16.70;99.90;;;;;;6123728;23;20017;-79
2021/07/28 00:58:16;;;;;;;17.05;10.90;;;16.70;99.90;;;;;;6126181;23;20018;-79
2021/07/28 01:00:42;;;;;;;15.48;11.15;;;16.70;99.90;;;;;;6141500;23;20029;-81
2021/07/28 01:03:09;;;;;;;13.45;10.93;;;16.60;99.90;;;;;;6127559;23;20485;-79
2021/07/28 01:05:35;;;;;;;15.57;10.65;;;16.60;99.90;;;;;;6129549;23;20021;-78
2021/07/28 01:08:02;;;;;;;17.30;11.18;;;16.50;99.90;;;;;;6129541;23;20096;-81
2021/07/28 01:10:28;;;;;;;17.25;11.63;;;16.50;99.90;;;;;;6156020;23;20009;-80
2021/07/28 01:16:38;;;;;;;18.63;12.30;;;16.40;99.90;;;;;;6155178;23;20045;-81
2021/07/28 01:19:11;;;;;;;18.92;12.20;;;16.40;99.90;;;;;;6128661;23;20473;-80
2021/07/28 01:21:37;;;;;;;19.10;12.52;;;16.40;99.90;;;;;;6153606;23;20041;-80
2021/07/28 01:24:05;;;;;;;17.45;12.07;;;16.40;99.90;;;;;;6126982;23;20064;-82
2021/07/28 01:26:34;;;;;;;16.70;11.88;;;16.30;99.90;;;;;;6152213;23;20096;-80
2021/07/28 01:29:00;;;;;;;17.65;13.38;;;16.30;99.90;;;;;;6128973;23;20126;-79
2021/07/28 01:31:26;;;;;;;21.88;13.90;;;16.30;99.90;;;;;;6152939;23;20021;-78
2021/07/28 01:33:52;;;;;;;16.08;12.75;;;16.30;99.90;;;;;;6128688;23;20318;-80
2021/07/28 01:36:22;;;;;;;18.25;14.38;;;16.20;99.90;;;;;;6138970;23;20009;-79
2021/07/28 01:38:49;;;;;;;19.30;13.30;;;16.20;99.90;;;;;;6127800;23;20028;-79
2021/07/28 01:41:15;;;;;;;17.27;13.18;;;16.20;99.90;;;;;;6165170;23;20006;-78
2021/07/28 01:43:42;;;;;;;18.27;13.60;;;16.20;99.90;;;;;;6156536;23;20092;-79
2021/07/28 01:46:08;;;;;;;19.35;14.00;;;16.10;99.90;;;;;;6137435;23;20021;-81
2021/07/28 01:48:34;;;;;;;21.25;14.20;;;16.20;99.90;;;;;;6128516;23;20044;-80
2021/07/28 01:51:00;;;;;;;19.23;14.60;;;16.10;99.90;;;;;;6128570;23;20036;-77
2021/07/28 01:53:27;;;;;;;19.70;14.48;;;16.10;99.90;;;;;;6128302;23;20064;-81
2021/07/28 01:55:55;;;;;;;21.38;15.07;;;16.20;99.90;;;;;;6155058;23;20010;-80
2021/07/28 01:58:21;;;;;;;23.30;14.63;;;16.20;99.90;;;;;;6153065;23;20457;-81
2021/07/28 02:00:47;;;;;;;26.25;16.00;;;16.20;99.90;;;;;;6156850;23;20014;-78
2021/07/28 02:03:13;;;;;;;36.10;16.70;;;16.20;99.90;;;;;;6164855;23;20084;-79
2021/07/28 02:05:40;;;;;;;25.58;16.08;;;16.20;99.90;;;;;;6153417;23;20047;-80
2021/07/28 02:08:12;;;;;;;21.45;15.93;;;16.30;99.90;;;;;;6163211;23;20445;-80
2021/07/28 02:10:46;;;;;;;21.30;15.95;;;16.30;99.90;;;;;;6164933;23;20057;-78
2021/07/28 02:13:17;;;;;;;21.33;16.48;;;16.30;99.90;;;;;;6159396;23;20020;-81
2021/07/28 02:15:43;;;;;;;25.63;16.88;;;16.30;99.90;;;;;;6127853;23;20017;-81
2021/07/28 02:18:09;;;;;;;29.83;17.77;;;16.30;99.90;;;;;;6164683;23;20463;-79
2021/07/28 02:20:36;;;;;;;29.08;18.40;;;16.30;99.90;;;;;;6164283;23;20069;-79
2021/07/28 02:23:02;;;;;;;28.73;19.65;;;16.30;99.90;;;;;;6154800;23;20010;-82
2021/07/28 02:25:28;;;;;;;30.50;20.40;;;16.40;99.90;;;;;;6165050;23;20017;-80
2021/07/28 02:27:54;;;;;;;33.40;21.00;;;16.30;99.90;;;;;;6154992;23;20040;-78
2021/07/28 02:30:20;;;;;;;31.10;20.17;;;16.30;99.90;;;;;;6138931;23;20109;-82
2021/07/28 02:32:47;;;;;;;31.05;20.33;;;16.30;99.90;;;;;;6129218;23;20566;-80
2021/07/28 02:35:14;;;;;;;34.13;21.25;;;16.30;99.90;;;;;;6128823;23;20014;-80
2021/07/28 02:37:42;;;;;;;33.90;21.77;;;16.30;99.90;;;;;;6128492;23;20454;-79
2021/07/28 02:40:09;;;;;;;30.40;20.98;;;16.30;99.90;;;;;;6154398;23;20013;-80
2021/07/28 02:42:36;;;;;;;31.70;21.58;;;16.30;99.90;;;;;;6128048;23;20024;-80
2021/07/28 02:45:03;;;;;;;35.25;21.63;;;16.30;99.90;;;;;;6162774;23;20483;-81
2021/07/28 02:47:28;;;;;;;35.75;21.00;;;16.30;99.90;;;;;;6138465;23;20009;-80
2021/07/28 02:49:54;;;;;;;37.05;21.98;;;16.20;99.90;;;;;;6127797;23;20062;-79
2021/07/28 02:52:20;;;;;;;35.65;21.52;;;16.30;99.90;;;;;;6127638;23;20539;-82
2021/07/28 02:54:46;;;;;;;37.05;21.40;;;16.30;99.90;;;;;;6163827;23;20119;-79
2021/07/28 02:57:12;;;;;;;35.10;21.58;;;16.30;99.90;;;;;;6153783;23;20056;-80
2021/07/28 02:59:37;;;;;;;29.38;20.27;;;16.30;99.90;;;;;;6123167;23;20636;-80
2021/07/28 03:02:03;;;;;;;28.25;20.08;;;16.30;99.90;;;;;;6123054;23;20383;-79
2021/07/28 03:04:30;;;;;;;28.77;20.70;;;16.30;99.90;;;;;;6126678;23;20363;-79
2021/07/28 03:06:56;;;;;;;34.35;20.48;;;16.30;99.90;;;;;;6122223;23;20029;-79
2021/07/28 03:09:21;;;;;;;34.05;20.10;;;16.30;99.90;;;;;;6122118;23;20017;-79
2021/07/28 03:11:48;;;;;;;30.38;20.63;;;16.10;99.90;;;;;;6121661;23;20387;-81
2021/07/28 03:14:13;;;;;;;37.40;20.52;;;16.20;99.90;;;;;;6122315;23;20010;-79
2021/07/28 03:16:40;;;;;;;32.40;19.75;;;16.20;99.90;;;;;;6121960;23;20372;-79
2021/07/28 03:19:05;;;;;;;31.00;21.00;;;16.20;99.90;;;;;;6133309;23;20017;-81
2021/07/28 03:21:33;;;;;;;30.85;20.52;;;16.20;99.90;;;;;;6133252;23;20018;-79
2021/07/28 03:24:00;;;;;;;30.85;19.73;;;16.20;99.90;;;;;;6121058;23;20526;-80
2021/07/28 03:26:26;;;;;;;25.90;19.65;;;16.00;99.90;;;;;;6122400;23;20014;-81
2021/07/28 03:28:51;;;;;;;31.73;19.75;;;16.10;99.90;;;;;;6124438;23;20010;-79
2021/07/28 03:31:18;;;;;;;28.45;20.73;;;16.00;99.90;;;;;;6122696;23;20032;-80
2021/07/28 03:33:45;;;;;;;36.17;21.27;;;16.00;99.90;;;;;;6122581;23;20014;-82
2021/07/28 03:36:11;;;;;;;37.70;21.92;;;16.00;99.90;;;;;;6132682;23;20085;-79
2021/07/28 03:38:37;;;;;;;33.05;21.05;;;15.90;99.90;;;;;;6120828;23;20116;-79
2021/07/28 03:41:04;;;;;;;28.08;19.67;;;15.90;99.90;;;;;;6130798;23;20513;-80
2021/07/28 03:43:36;;;;;;;28.25;20.23;;;15.90;99.90;;;;;;6124488;23;20010;-78
2021/07/28 03:46:04;;;;;;;35.30;20.73;;;15.90;99.90;;;;;;6130180;23;20021;-79
2021/07/28 03:48:31;;;;;;;31.35;21.13;;;15.80;99.90;;;;;;6120786;23;20026;-78
2021/07/28 03:51:00;;;;;;;29.25;20.02;;;15.80;99.90;;;;;;6130206;23;20465;-78
2021/07/28 03:53:26;;;;;;;33.10;20.70;;;15.80;99.90;;;;;;6121269;23;20018;-80
2021/07/28 03:55:52;;;;;;;33.25;21.15;;;15.70;99.90;;;;;;6130991;23;20383;-80
2021/07/28 03:58:19;;;;;;;33.20;22.17;;;15.70;99.90;;;;;;6127117;23;20473;-79
2021/07/28 04:00:45;;;;;;;34.55;21.70;;;15.70;99.90;;;;;;6078287;23;1084664;-79
2021/07/28 04:03:11;;;;;;;34.92;22.58;;;15.70;99.90;;;;;;6123199;23;20020;-80
2021/07/28 04:05:37;;;;;;;34.72;21.42;;;15.70;99.90;;;;;;6122189;23;20017;-79
2021/07/28 04:08:03;;;;;;;32.83;21.48;;;15.80;99.90;;;;;;6132752;23;20376;-78
2021/07/28 04:10:30;;;;;;;32.53;22.15;;;15.70;99.90;;;;;;6122258;23;20033;-80
2021/07/28 04:12:56;;;;;;;38.47;22.88;;;15.80;99.90;;;;;;6124417;23;20010;-80
2021/07/28 04:15:22;;;;;;;32.60;21.35;;;15.80;99.90;;;;;;6122339;23;20014;-82
2021/07/28 04:17:47;;;;;;;32.63;22.58;;;15.90;99.90;;;;;;6134125;23;20407;-81
2021/07/28 04:20:14;;;;;;;40.20;23.35;;;15.90;99.90;;;;;;6131593;23;20010;-81
2021/07/28 04:22:41;;;;;;;37.67;22.88;;;15.90;99.90;;;;;;6132345;23;20021;-81
2021/07/28 04:25:09;;;;;;;35.80;22.48;;;16.00;99.90;;;;;;6132881;23;20018;-78
2021/07/28 04:27:35;;;;;;;39.67;22.40;;;16.00;99.90;;;;;;6131325;23;20014;-80
2021/07/28 04:30:00;;;;;;;35.60;22.25;;;16.00;99.90;;;;;;6123036;23;20048;-81
2021/07/28 04:32:26;;;;;;;34.15;23.52;;;16.00;99.90;;;;;;6119947;23;20021;-83
2021/07/28 04:34:52;;;;;;;37.05;23.10;;;16.00;99.90;;;;;;6122330;23;20129;-80
2021/07/28 04:37:20;;;;;;;39.70;23.17;;;16.00;99.90;;;;;;6130522;23;20807;-81
2021/07/28 04:39:46;;;;;;;35.75;22.52;;;16.00;99.90;;;;;;6131183;23;20010;-77
2021/07/28 04:42:11;;;;;;;32.13;22.27;;;16.00;99.90;;;;;;6120564;23;20502;-78
2021/07/28 04:44:37;;;;;;;33.20;22.38;;;16.00;99.90;;;;;;6121638;23;20018;-75
2021/07/28 04:47:03;;;;;;;33.50;23.10;;;16.00;99.90;;;;;;6122509;23;20013;-79
2021/07/28 04:49:29;;;;;;;38.65;23.58;;;16.00;99.90;;;;;;6130690;23;20653;-81
2021/07/28 04:51:55;;;;;;;37.08;24.08;;;16.00;99.90;;;;;;6131970;23;20021;-81
2021/07/28 04:54:20;;;;;;;35.97;23.90;;;16.00;99.90;;;;;;6132636;23;20315;-80
2021/07/28 04:56:46;;;;;;;36.03;22.95;;;16.10;99.90;;;;;;6121071;23;20093;-78
2021/07/28 04:59:12;;;;;;;37.55;24.20;;;16.10;99.90;;;;;;6120955;23;20423;-78
2021/07/28 05:01:38;;;;;;;35.10;23.25;;;16.20;99.90;;;;;;6122569;23;20025;-79
2021/07/28 05:04:05;;;;;;;36.03;21.50;;;16.30;99.90;;;;;;6129318;23;20081;-79
2021/07/28 05:06:31;;;;;;;36.58;22.50;;;16.30;99.90;;;;;;6122703;23;20069;-79
2021/07/28 05:08:56;;;;;;;35.80;22.38;;;16.40;99.90;;;;;;6120554;23;20010;-80
2021/07/28 05:11:22;;;;;;;33.97;22.58;;;16.40;99.90;;;;;;6121374;23;20017;-81
2021/07/28 05:13:48;;;;;;;33.75;21.77;;;16.40;99.90;;;;;;6127806;23;20091;-79
2021/07/28 05:16:14;;;;;;;33.65;22.17;;;16.60;99.90;;;;;;6130617;23;20402;-78
2021/07/28 05:18:39;;;;;;;41.20;21.75;;;16.50;99.90;;;;;;6121142;23;20037;-79
2021/07/28 05:21:05;;;;;;;31.52;21.52;;;16.70;99.90;;;;;;6121292;23;20161;-82
2021/07/28 05:23:31;;;;;;;32.85;21.95;;;16.80;99.90;;;;;;6131206;23;20017;-80
2021/07/28 05:25:57;;;;;;;31.25;21.90;;;16.80;99.90;;;;;;6123502;23;20083;-82
2021/07/28 05:28:23;;;;;;;31.77;22.17;;;16.80;99.90;;;;;;6124051;23;20013;-78
2021/07/28 05:30:49;;;;;;;34.45;22.48;;;16.80;99.90;;;;;;6131592;23;20622;-80
2021/07/28 05:33:15;;;;;;;29.05;21.40;;;16.90;99.90;;;;;;6132722;23;20021;-76
2021/07/28 05:35:46;;;;;;;32.17;21.02;;;17.00;99.90;;;;;;6130558;23;20018;-74
2021/07/28 05:38:12;;;;;;;29.98;19.85;;;17.00;99.90;;;;;;6132772;23;20434;-75
2021/07/28 05:40:37;;;;;;;33.10;20.92;;;17.10;99.90;;;;;;6132208;23;20089;-75
2021/07/28 05:43:03;;;;;;;28.90;19.85;;;17.20;99.90;;;;;;6129840;23;20020;-79
2021/07/28 05:45:29;;;;;;;32.63;20.35;;;17.10;99.90;;;;;;6132586;23;20311;-81
2021/07/28 05:47:55;;;;;;;28.90;20.83;;;17.20;99.90;;;;;;6121237;23;20465;-81
2021/07/28 05:50:21;;;;;;;30.10;20.25;;;17.30;99.90;;;;;;6131709;23;20092;-82
2021/07/28 05:52:47;;;;;;;30.65;20.05;;;17.40;99.90;;;;;;6122756;23;20009;-80
2021/07/28 05:55:13;;;;;;;30.73;19.88;;;17.50;99.90;;;;;;6132267;23;20021;-83
2021/07/28 05:57:40;;;;;;;29.27;19.35;;;17.40;99.90;;;;;;6131113;23;20013;-82
2021/07/28 06:00:08;;;;;;;27.05;19.42;;;17.40;99.90;;;;;;6129215;23;20072;-82
2021/07/28 06:02:34;;;;;;;26.63;19.70;;;17.40;99.90;;;;;;6121358;23;20066;-80
2021/07/28 06:04:59;;;;;;;30.60;19.75;;;17.50;99.90;;;;;;6125603;23;20025;-79
2021/07/28 06:07:25;;;;;;;29.92;20.00;;;17.60;99.90;;;;;;6123320;23;20017;-79
2021/07/28 06:09:51;;;;;;;28.10;19.70;;;17.60;99.90;;;;;;6121030;23;20014;-82
2021/07/28 06:12:18;;;;;;;27.67;19.20;;;17.70;99.90;;;;;;6131184;23;20014;-78
2021/07/28 06:14:44;;;;;;;30.35;20.00;;;17.80;99.90;;;;;;6120238;23;20208;-81
2021/07/28 06:17:11;;;;;;;27.52;19.58;;;17.80;99.90;;;;;;6130187;23;20346;-82
2021/07/28 06:19:38;;;;;;;28.92;19.95;;;17.80;99.90;;;;;;6132468;23;20439;-79
2021/07/28 06:22:04;;;;;;;28.17;20.05;;;17.80;99.90;;;;;;6132804;23;20137;-80
2021/07/28 06:24:31;;;;;;;28.83;19.95;;;17.80;99.90;;;;;;6124447;23;20028;-81
2021/07/28 06:26:57;;;;;;;32.92;21.08;;;17.80;99.90;;;;;;6123104;23;20026;-78
2021/07/28 06:29:25;;;;;;;25.23;16.88;;;17.90;99.90;;;;;;6124093;23;20014;-82
2021/07/28 06:31:52;;;;;;;29.90;20.70;;;17.80;99.90;;;;;;6132533;23;20097;-79
2021/07/28 06:34:18;;;;;;;28.55;21.40;;;17.90;99.90;;;;;;6133185;23;20010;-82
2021/07/28 06:36:45;;;;;;;26.15;21.13;;;17.80;99.90;;;;;;6123270;23;20018;-82
2021/07/28 06:39:10;;;;;;;28.48;21.00;;;17.90;99.90;;;;;;6133029;23;20017;-82
2021/07/28 06:41:36;;;;;;;28.55;21.13;;;17.90;99.90;;;;;;6134013;23;20339;-82
2021/07/28 06:44:02;;;;;;;27.17;19.75;;;18.00;99.90;;;;;;6122821;23;20025;-82
2021/07/28 06:46:28;;;;;;;27.38;20.80;;;18.20;99.90;;;;;;6134359;23;20017;-80
2021/07/28 06:48:54;;;;;;;27.73;21.00;;;18.30;99.90;;;;;;6134620;23;20014;-81
2021/07/28 06:51:20;;;;;;;25.90;19.52;;;18.50;99.90;;;;;;6122929;23;20068;-82
2021/07/28 06:53:46;;;;;;;24.73;19.58;;;18.60;99.90;;;;;;6143616;23;20014;-78
2021/07/28 06:56:13;;;;;;;24.45;19.75;;;18.70;99.90;;;;;;6144268;23;20025;-75
2021/07/28 06:58:39;;;;;;;30.05;20.77;;;18.60;99.90;;;;;;6145958;23;20521;-76
2021/07/28 07:01:07;;;;;;;32.67;21.13;;;18.60;99.90;;;;;;6160181;23;20022;-77
2021/07/28 07:03:36;;;;;;;26.98;20.35;;;18.60;99.90;;;;;;6137641;23;20014;-78
2021/07/28 07:06:03;;;;;;;24.20;18.55;;;18.70;99.90;;;;;;6144876;23;20018;-81
2021/07/28 07:08:32;;;;;;;22.75;17.98;;;18.80;99.90;;;;;;6128492;23;20061;-81
2021/07/28 07:10:58;;;;;;;22.20;18.25;;;18.90;99.90;;;;;;6124993;23;20006;-86
2021/07/28 07:13:24;;;;;;;21.05;17.45;;;19.00;99.90;;;;;;6122837;23;20010;-85
2021/07/28 07:15:50;;;;;;;21.42;17.92;;;19.10;99.90;;;;;;6147731;23;20312;-82
2021/07/28 07:18:17;;;;;;;21.70;17.63;;;19.10;99.90;;;;;;6124718;23;20122;-78
2021/07/28 07:20:42;;;;;;;22.58;17.55;;;19.10;99.90;;;;;;6123124;23;20042;-78
2021/07/28 07:23:08;;;;;;;20.85;16.77;;;19.30;99.90;;;;;;6130987;23;20014;-81
2021/07/28 07:25:36;;;;;;;19.23;15.10;;;19.40;99.90;;;;;;6122397;23;20029;-83
2021/07/28 07:28:03;;;;;;;16.73;14.43;;;19.50;99.90;;;;;;6122396;23;20039;-83
2021/07/28 07:30:28;;;;;;;23.40;16.58;;;19.60;99.90;;;;;;6134484;23;20040;-85
2021/07/28 07:35:38;;;;;;;18.13;14.63;;;19.90;99.90;;;;;;6134375;23;20060;-85
2021/07/28 07:38:04;;;;;;;21.55;15.23;;;19.70;99.90;;;;;;6098180;23;20059;-87
2021/07/28 07:40:30;;;;;;;20.95;15.82;;;19.70;99.90;;;;;;6121134;23;20018;-82
2021/07/28 07:42:56;;;;;;;17.48;15.15;;;19.80;99.90;;;;;;6133939;23;20021;-81
2021/07/28 07:45:21;;;;;;;18.75;14.38;;;19.90;99.90;;;;;;6124559;23;20453;-81
2021/07/28 07:47:47;;;;;;;19.35;16.00;;;19.90;99.90;;;;;;6123225;23;20021;-83
2021/07/28 07:50:13;;;;;;;22.00;15.82;;;20.10;99.90;;;;;;6123162;23;20088;-84
2021/07/28 07:52:39;;;;;;;21.45;16.40;;;20.10;99.90;;;;;;6132976;23;20021;-84
2021/07/28 07:55:05;;;;;;;22.02;15.55;;;20.20;99.90;;;;;;6125284;23;20014;-83
2021/07/28 07:57:32;;;;;;;23.27;14.88;;;20.20;99.90;;;;;;6123611;23;20125;-81
2021/07/28 07:59:58;;;;;;;17.52;14.90;;;20.30;99.90;;;;;;6126467;23;20021;-82
2021/07/28 08:02:24;;;;;;;15.95;12.43;;;20.40;99.90;;;;;;6137498;23;20014;-85
2021/07/28 08:04:52;;;;;;;15.48;13.82;;;20.40;99.90;;;;;;6130786;23;20029;-81
2021/07/28 08:07:18;;;;;;;19.33;14.77;;;20.30;99.90;;;;;;6127437;23;20789;-82
2021/07/28 08:09:44;;;;;;;16.85;14.48;;;20.20;99.90;;;;;;6137701;23;20013;-83
2021/07/28 08:12:09;;;;;;;14.95;13.13;;;20.10;99.90;;;;;;6138751;23;20287;-84
2021/07/28 08:14:35;;;;;;;16.52;14.18;;;20.20;99.90;;;;;;6164614;23;20033;-84
2021/07/28 08:17:04;;;;;;;20.65;14.57;;;20.50;99.90;;;;;;6170095;23;20044;-82
2021/07/28 08:19:33;;;;;;;19.63;14.85;;;20.40;99.90;;;;;;6146143;23;20490;-82
2021/07/28 08:21:59;;;;;;;19.35;13.75;;;20.40;99.90;;;;;;6154575;23;20005;-82
2021/07/28 08:24:24;;;;;;;17.05;13.10;;;20.50;99.90;;;;;;6137736;23;20020;-79
2021/07/28 08:26:50;;;;;;;18.00;12.43;;;20.60;99.90;;;;;;6163597;23;20021;-82
2021/07/28 08:29:16;;;;;;;17.25;11.82;;;20.70;99.90;;;;;;6156843;23;20016;-80
2021/07/28 08:31:42;;;;;;;16.02;13.02;;;20.80;99.90;;;;;;6163049;23;20017;-81
2021/07/28 08:34:07;;;;;;;15.65;11.98;;;20.70;99.90;;;;;;6153032;23;20006;-80
2021/07/28 08:36:33;;;;;;;17.10;11.55;;;20.80;99.90;;;;;;6126802;23;20029;-82
2021/07/28 08:38:59;;;;;;;13.15;11.48;;;20.70;99.90;;;;;;6126639;23;20075;-80
2021/07/28 08:41:35;;;;;;;15.05;11.45;;;20.70;99.90;;;;;;6137332;23;20457;-80
2021/07/28 08:44:01;;;;;;;14.90;10.95;;;20.80;99.90;;;;;;6133292;23;20013;-84
2021/07/28 08:46:27;;;;;;;14.48;12.25;;;20.90;99.90;;;;;;6152553;23;20512;-83
2021/07/28 08:48:54;;;;;;;14.75;11.75;;;20.90;99.90;;;;;;6136949;23;20013;-81
2021/07/28 08:51:27;;;;;;;18.92;11.43;;;20.80;99.90;;;;;;6127517;23;20018;-84
2021/07/28 08:53:54;;;;;;;15.85;11.73;;;20.70;99.90;;;;;;6128520;23;20013;-88
2021/07/28 08:56:22;;;;;;;16.67;10.82;;;20.60;99.90;;;;;;6129311;23;20013;-86
2021/07/28 08:58:48;;;;;;;14.23;11.82;;;20.60;99.90;;;;;;6128998;23;20092;-87
2021/07/28 09:01:14;;;;;;;19.00;12.68;;;20.80;99.90;;;;;;6123131;23;20698;-84
2021/07/28 09:03:40;;;;;;;17.73;11.20;;;21.00;99.90;;;;;;6130582;23;20049;-83
2021/07/28 09:06:07;;;;;;;11.43;10.23;;;21.30;99.90;;;;;;6131667;23;20105;-79
2021/07/28 09:08:35;;;;;;;12.82;10.82;;;21.40;99.90;;;;;;6121702;23;20017;-83
2021/07/28 09:11:05;;;;;;;12.95;10.40;;;21.60;99.90;;;;;;6133992;23;20022;-82
2021/07/28 09:14:24;;;;;;;15.02;10.13;;;21.80;99.90;;;;;;6133084;23;20006;-79
2021/07/28 09:16:51;;;;;;;13.82;10.23;;;21.80;99.90;;;;;;6097129;23;20046;-83
2021/07/28 09:19:39;;;;;;;12.75;9.85;;;21.60;99.90;;;;;;6075748;23;20014;-83
2021/07/28 09:22:06;;;;;;;13.15;9.45;;;21.60;99.90;;;;;;6102519;23;20018;-84
2021/07/28 09:24:32;;;;;;;12.02;9.75;;;21.80;99.90;;;;;;6044318;23;20054;-85
2021/07/28 09:26:59;;;;;;;10.57;9.25;;;22.00;99.90;;;;;;6044782;23;20328;-87
2021/07/28 09:29:26;;;;;;;13.65;9.30;;;22.20;99.90;;;;;;6073816;23;20022;-83
2021/07/28 09:32:09;;;;;;;9.75;8.48;;;22.10;99.90;;;;;;6103202;23;20344;-89
2021/07/28 09:34:39;;;;;;;12.65;8.45;;;22.40;99.90;;;;;;6079938;23;20018;-85
2021/07/28 09:37:10;;;;;;;10.70;8.43;;;22.50;99.90;;;;;;6103136;23;20018;-86
2021/07/28 09:39:38;;;;;;;9.80;7.13;;;22.50;99.90;;;;;;6067390;23;20029;-83
2021/07/28 09:42:09;;;;;;;13.27;7.80;;;22.40;99.90;;;;;;6077508;23;20379;-83
2021/07/28 09:44:35;;;;;;;9.27;6.57;;;22.70;99.90;;;;;;6066918;23;20036;-84
2021/07/28 09:47:20;;;;;;;11.73;7.25;;;22.80;99.90;;;;;;6092993;23;20439;-83
2021/07/28 09:49:48;;;;;;;6.82;5.50;;;22.80;99.90;;;;;;6045426;23;20028;-80
2021/07/28 09:52:21;;;;;;;13.57;6.55;;;22.70;99.90;;;;;;6113341;23;20018;-82
2021/07/28 09:54:51;;;;;;;9.13;6.57;;;22.50;99.90;;;;;;6125247;23;20018;-82
2021/07/28 09:57:20;;;;;;;13.50;6.82;;;22.40;99.90;;;;;;6125125;23;20006;-86
2021/07/28 09:59:51;;;;;;;13.20;6.68;;;22.30;99.90;;;;;;6126667;23;20014;-84
2021/07/28 10:02:23;;;;;;;10.43;6.53;;;22.40;99.90;;;;;;6107537;23;20056;-83
2021/07/28 10:04:53;;;;;;;10.75;6.80;;;22.60;99.90;;;;;;6103850;23;20013;-83
2021/07/28 10:07:21;;;;;;;11.40;5.93;;;22.80;99.90;;;;;;6139331;23;20017;-83
2021/07/28 10:09:58;;;;;;;6.93;6.18;;;22.90;99.90;;;;;;6129358;23;20020;-85
2021/07/28 10:12:25;;;;;;;8.38;6.82;;;22.90;99.90;;;;;;6127367;23;20067;-82
2021/07/28 10:14:52;;;;;;;11.90;6.75;;;22.90;99.90;;;;;;6159135;23;20058;-85
2021/07/28 10:17:18;;;;;;;8.80;5.97;;;22.80;99.90;;;;;;6139174;23;20009;-85
2021/07/28 10:19:44;;;;;;;10.05;6.15;;;23.20;99.90;;;;;;6129119;23;20035;-85
2021/07/28 10:22:11;;;;;;;8.70;6.30;;;23.40;99.90;;;;;;6128820;23;20033;-85
2021/07/28 10:24:37;;;;;;;10.80;6.13;;;23.30;99.90;;;;;;6128565;23;20014;-85
2021/07/28 10:27:04;;;;;;;7.47;5.82;;;23.20;99.90;;;;;;6138145;23;20446;-85
2021/07/28 10:29:33;;;;;;;8.02;6.03;;;23.20;99.90;;;;;;6164230;23;20853;-83
2021/07/28 10:31:59;;;;;;;10.07;5.85;;;23.00;99.90;;;;;;6155058;23;20125;-79
2021/07/28 10:34:28;;;;;;;9.00;6.43;;;22.70;99.90;;;;;;6178747;23;20029;-79
2021/07/28 10:36:57;;;;;;;10.25;6.65;;;22.60;99.90;;;;;;6152648;23;20037;-85
2021/07/28 10:39:47;;;;;;;8.43;6.38;;;22.70;99.90;;;;;;6155672;23;20044;-82
2021/07/28 10:42:49;;;;;;;9.45;6.10;;;22.50;99.90;;;;;;6153465;23;20082;-83
2021/07/28 10:48:56;;;;;;;18.50;6.68;;;22.30;99.90;;;;;;6122259;23;20017;-89
2021/07/28 10:51:53;;;;;;;9.43;7.75;;;22.10;99.90;;;;;;6132420;23;20022;-87
2021/07/28 10:54:42;;;;;;;12.43;8.20;;;21.70;99.90;;;;;;6108251;23;20048;-86
2021/07/28 10:57:08;;;;;;;10.27;7.60;;;21.50;99.90;;;;;;6100703;23;20293;-85
2021/07/28 10:59:41;;;;;;;9.10;7.78;;;21.40;99.90;;;;;;6097274;23;20014;-81
2021/07/28 11:02:07;;;;;;;10.75;7.80;;;21.40;99.90;;;;;;6130016;23;20086;-80
2021/07/28 11:04:33;;;;;;;8.95;8.02;;;21.50;99.90;;;;;;6097236;23;20061;-81
2021/07/28 11:06:58;;;;;;;12.13;8.50;;;21.60;99.90;;;;;;6097435;23;20024;-82
2021/07/28 11:09:25;;;;;;;10.52;8.30;;;21.70;99.90;;;;;;6126969;23;20075;-82
2021/07/28 11:11:51;;;;;;;11.23;8.25;;;21.90;99.90;;;;;;6131779;23;20018;-85
2021/07/28 11:14:17;;;;;;;11.93;7.80;;;22.10;99.90;;;;;;6097033;23;20017;-84
2021/07/28 11:16:51;;;;;;;7.97;6.18;;;22.00;99.90;;;;;;6097791;23;20014;-80
2021/07/28 11:19:20;;;;;;;10.43;6.38;;;21.90;99.90;;;;;;6073404;23;20319;-89
2021/07/28 11:22:05;;;;;;;9.55;5.80;;;21.70;99.90;;;;;;6096824;23;20021;-90
2021/07/28 11:24:41;;;;;;;13.02;4.72;;;21.80;99.90;;;;;;6109387;23;20018;-93
2021/07/28 11:27:13;;;;;;;7.22;4.65;;;21.90;99.90;;;;;;6123837;23;20506;-85
2021/07/28 11:29:39;;;;;;;8.13;5.40;;;22.10;99.90;;;;;;6074837;23;20068;-84
2021/07/28 11:32:21;;;;;;;8.25;4.53;;;22.30;99.90;;;;;;6125884;23;20014;-88
2021/07/28 11:34:55;;;;;;;8.10;5.30;;;22.50;99.90;;;;;;6074529;23;20089;-85
2021/07/28 11:37:21;;;;;;;6.25;4.30;;;22.70;99.90;;;;;;6110909;23;20037;-88
2021/07/28 11:39:59;;;;;;;7.10;5.07;;;22.70;99.90;;;;;;6104809;23;20013;-86
2021/07/28 11:42:28;;;;;;;6.95;4.50;;;22.50;99.90;;;;;;6112210;23;20081;-85
2021/07/28 11:44:55;;;;;;;14.80;5.13;;;22.40;99.90;;;;;;6081397;23;20021;-85
2021/07/28 11:47:25;;;;;;;7.68;4.72;;;22.00;99.90;;;;;;6110533;23;20032;-85
2021/07/28 11:50:04;;;;;;;12.15;4.65;;;21.80;99.90;;;;;;6139913;23;20018;-85
2021/07/28 11:52:32;;;;;;;6.70;5.03;;;21.50;99.90;;;;;;6111492;23;20094;-85
2021/07/28 11:54:57;;;;;;;11.25;5.70;;;21.30;99.90;;;;;;6098373;23;20018;-82
2021/07/28 11:57:23;;;;;;;7.80;5.07;;;21.40;99.90;;;;;;6109308;23;20062;-86
2021/07/28 11:59:49;;;;;;;8.85;5.90;;;21.50;99.90;;;;;;6136285;23;20068;-85
2021/07/28 12:02:22;;;;;;;8.30;5.55;;;21.60;99.90;;;;;;6165585;23;20413;-84
2021/07/28 12:04:48;;;;;;;7.82;5.55;;;21.80;99.90;;;;;;6127481;23;20097;-83
2021/07/28 12:07:16;;;;;;;11.80;5.70;;;22.00;99.90;;;;;;6137692;23;20483;-82
2021/07/28 12:09:55;;;;;;;9.60;5.68;;;22.10;99.90;;;;;;6153059;23;20014;-85
2021/07/28 12:12:25;;;;;;;13.30;5.43;;;22.10;99.90;;;;;;6139217;23;20112;-85
2021/07/28 12:15:07;;;;;;;9.50;5.82;;;22.20;99.90;;;;;;6126272;23;20048;-89
2021/07/28 12:17:33;;;;;;;10.77;6.30;;;21.80;99.90;;;;;;6154583;23;20032;-84
2021/07/28 12:20:00;;;;;;;10.13;6.30;;;21.70;99.90;;;;;;6155072;23;20434;-83
2021/07/28 12:22:33;;;;;;;10.38;5.88;;;21.80;99.90;;;;;;6128518;23;20033;-88
2021/07/28 12:25:24;;;;;;;7.97;5.68;;;21.90;99.90;;;;;;6103481;23;20351;-86
2021/07/28 12:27:55;;;;;;;11.60;6.18;;;22.00;99.90;;;;;;6154198;23;20045;-84
2021/07/28 12:30:32;;;;;;;13.38;5.97;;;22.10;99.90;;;;;;6131813;23;20096;-87
2021/07/28 12:33:16;;;;;;;13.50;6.32;;;22.20;99.90;;;;;;6137467;23;20017;-82
2021/07/28 12:36:04;;;;;;;9.93;5.55;;;22.40;99.90;;;;;;6127703;23;20100;-86
2021/07/28 12:38:31;;;;;;;8.48;5.78;;;22.40;99.90;;;;;;6128382;23;20021;-85
2021/07/28 12:41:06;;;;;;;9.13;5.72;;;22.40;99.90;;;;;;6113102;23;20395;-84
2021/07/28 12:43:37;;;;;;;10.18;4.90;;;22.30;99.90;;;;;;6127549;23;20009;-84
2021/07/28 12:46:05;;;;;;;10.27;5.60;;;22.40;99.90;;;;;;6129643;23;20100;-86
2021/07/28 12:48:35;;;;;;;8.50;5.32;;;22.20;99.90;;;;;;6127103;23;20020;-86